PORT of HALIFAX

Country: Canada Country: Canada (CA)
Latitude / Longitude: 44.66815° / -63.5961° Show on Map Show on Map
Local Time:  UTC-3
UN/LOCODE: CAHAL
Vessels in Port: 26
Expected Arrivals: 4

Recent Arrivals & Departures


Vessel Name
Arrival (UTC)
Arrival (LT)
Departure (UTC)
Departure (LT)
Vessel Type: Tugs, Pilots etc  CHEBUCTO PILOT 2014-09-21 02:45:00 2014-09-20 23:45:00
Vessel Type: Cargo Vessels  ATLANTIC CONCERT 2014-09-20 19:35:00 2014-09-20 16:35:00 2014-09-21 02:00:00 2014-09-20 23:00:00
Vessel Type: Tugs, Pilots etc  CHEBUCTO PILOT 2014-09-21 00:53:00 2014-09-20 21:53:00 2014-09-21 01:58:00 2014-09-20 22:58:00
Vessel Type: Tugs, Pilots etc  EDWARD CORNWALLIS 2014-09-15 17:00:00 2014-09-15 14:00:00 2014-09-21 00:17:00 2014-09-20 21:17:00
Vessel Type: Passenger Vessels  QUEEN MARY 2 2014-09-20 14:03:00 2014-09-20 11:03:00 2014-09-21 00:04:00 2014-09-20 21:04:00
Vessel Type: Tankers  ALGOMA DARTMOUTH 2014-09-20 23:56:00 2014-09-20 20:56:00
Vessel Type: Tugs, Pilots etc  CHEBUCTO PILOT 2014-09-20 22:33:00 2014-09-20 19:33:00 2014-09-20 23:51:00 2014-09-20 20:51:00
Vessel Type: Tugs, Pilots etc  SIR WILLIAM ALEXANDER 2014-09-17 12:59:00 2014-09-17 09:59:00 2014-09-20 21:49:00 2014-09-20 18:49:00
Vessel Type: Cargo Vessels  ADRIATIC HIGHWAY 2014-09-20 14:20:00 2014-09-20 11:20:00 2014-09-20 21:39:00 2014-09-20 18:39:00
Vessel Type: Passenger Vessels  SEA EXPLORER 2014-09-20 04:25:00 2014-09-20 01:25:00 2014-09-20 21:22:00 2014-09-20 18:22:00

Expected Arrivals


Vessel Name
Scheduled Arrival (UTC)
Scheduled Arrival (LT)
Estimated Arrival (UTC)
Estimated Arrival (LT)
Vessel Type: Cargo Vessels  NYK DEMETER 2014-09-21 23:30:00 2014-09-21 20:30:00 2014-09-21 23:48:00 2014-09-21 20:48:00
Vessel Type: Cargo Vessels  DON JUAN 2014-09-22 05:00:00 2014-09-22 02:00:00 2014-09-20 22:09:00 2014-09-20 19:09:00
Vessel Type: Passenger Vessels  NORWEGIAN GEM 2014-09-22 10:30:00 2014-09-22 07:30:00 2014-09-22 11:30:00 2014-09-22 08:30:00
Vessel Type: Cargo Vessels  ATLANTIC COMPASS 2014-09-22 16:00:00 2014-09-22 13:00:00 2014-09-22 12:43:00 2014-09-22 09:43:00

Wind Forecast


    
Time (UTC)
Speed
Direction
Temperature
2014-09-21 06:00:00 14 knots 227° 16°C
2014-09-21 09:00:00 12 knots 159° 19°C
2014-09-21 12:00:00 14 knots 144° 18°C
2014-09-21 15:00:00 29 knots 156° 19°C
2014-09-21 18:00:00 25 knots 194° 19°C
2014-09-21 21:00:00 18 knots 217° 19°C
2014-09-22 00:00:00 9 knots 254° 19°C
2014-09-22 03:00:00 9 knots 259° 20°C
2014-09-22 06:00:00 14 knots 236° 21°C
2014-09-22 09:00:00 16 knots 218° 20°C
2014-09-22 12:00:00 14 knots 233° 18°C
2014-09-22 15:00:00 14 knots 253° 17°C
2014-09-22 18:00:00 10 knots 274° 16°C
2014-09-22 21:00:00 11 knots 278° 13°C
2014-09-23 00:00:00 12 knots 289° 14°C
2014-09-23 03:00:00 12 knots 288° 14°C
2014-09-23 06:00:00 12 knots 282° 16°C